Hauptseite
METAR-TAF:

METAR-TAF

Flughäfen :

Militärflugplatz Cameri

Novara, Italien

Breite: 45-31N, Länge: 008-40E, Höhe: 178 m

Beobachtung

Neuester Wetterbericht von vor 46 Minuten, um 17:55 UTC
Wind 2 kt aus West
Temperatur 14°C
Luftfeuchtigkeit 88%
Luftdruck 1026 hPa
Sichtweite: 5000 m
Aufgelockert bewölkt in der Höhe von 2000 ft
Durchbrochene Bewölkung in der Höhe von 6000 ft
feuchter Dunst

METAR: LIMN 121755Z 27002KT 5000 BR SCT020 BKN060 14/12 Q1026 RMK BKN VIS MIN 5000 WHT

Zeit: 19:41 (18:41 UTC)

Prognose

Neuester Wetterbericht von vor 1 Stunde und 41 Minuten, um 17:00 UTC
Gültige Prognose vom 12 um 18 UTC bis 13 um 03 UTC
Wind 3 kt aus unterschiedlichen Richtungen
Sichtweite: 5000 m
Durchbrochene Bewölkung in der Höhe von 3000 ft
feuchter Dunst
Zeitweise
vom 12 um 18 UTC bis 13 um 03 UTC
Sichtweite: 1500 m
feuchter Dunst

TAF: LIMN 121700Z 1218/1303 VRB03KT 5000 BR BKN030 TEMPO 1218/1303 1500 BR

Wetterbeobachtungen und Prognosen von mehr als 4000 Flughäfen (METAR und TAF Bericht).

Die verfügbaren Stationen werden durch gelbe und rote Markierungen auf der Karte dargestellt.

Führen Sie die Maus auf sie, um den Namen der Station zu sehen.

Darauf klicken, um die Beobachtung von Wetterbeobachtungen und Prognosen zu sehen.

Um die Karte zu ändern : klicken Sie auf den grünen Tasten mit einem schwarzen Kreuz Zum Vergrößern, auf den grünen Button mit einem Gedankenstrich zu verkleinern, oder auf die grünen Pfeile für benachbarte Karten.


METAR-TAF: